Time;durP1;ratioP1;P1;durP2;ratioP2;P2;SDS_P1;SDS_P2;PMS_P1;PMS_P2;Temp;Humidity;BMP_temperature;BMP_pressure;BME280_temperature;BME280_humidity;BME280_pressure;Samples;Min_cycle;Max_cycle;Signal;HPM_P1;HPM_P2
2021/09/03 00:01:12;;;;;;;7.00;5.33;;;;;;;;;;5001586;28;20186;-87
2021/09/03 00:04:16;;;;;;;11.40;5.50;;;;;;;;;;5001768;28;20221;-86
2021/09/03 00:07:21;;;;;;;8.40;5.30;;;;;;;;;;5013274;28;20186;-86
2021/09/03 00:10:25;;;;;;;9.07;5.63;;;;;;;;;;5015543;28;20182;-87
2021/09/03 00:13:30;;;;;;;6.77;5.17;;;;;;;;;;5016716;28;20177;-87
2021/09/03 00:16:37;;;;;;;7.80;5.13;;;;;;;;;;5005167;28;20213;-86
2021/09/03 00:19:42;;;;;;;9.87;5.20;;;;;;;;;;5005486;28;20197;-87
2021/09/03 00:22:45;;;;;;;7.10;5.23;;;;;;;;;;5005564;28;20185;-87
2021/09/03 00:25:50;;;;;;;6.50;4.90;;;;;;;;;;5005277;28;20185;-87
2021/09/03 00:28:53;;;;;;;7.73;4.97;;;;;;;;;;4994017;28;20193;-87
2021/09/03 00:31:58;;;;;;;7.07;4.83;;;;;;;;;;5016641;28;20185;-87
2021/09/03 00:35:02;;;;;;;6.80;4.57;;;;;;;;;;5016209;28;20220;-87
2021/09/03 00:38:06;;;;;;;6.33;4.73;;;;;;;;;;5005302;28;20182;-87
2021/09/03 00:41:11;;;;;;;5.03;4.30;;;;;;;;;;5016771;28;20295;-87
2021/09/03 00:44:15;;;;;;;11.00;4.80;;;;;;;;;;5004899;28;20228;-86
2021/09/03 00:47:19;;;;;;;6.37;4.70;;;;;;;;;;5004965;28;20182;-86
2021/09/03 00:50:23;;;;;;;6.07;4.47;;;;;;;;;;5004963;28;20185;-87
2021/09/03 00:53:28;;;;;;;6.13;4.73;;;;;;;;;;5005188;28;20181;-86
2021/09/03 00:56:32;;;;;;;5.53;4.33;;;;;;;;;;5004725;28;20665;-86
2021/09/03 00:59:37;;;;;;;7.63;4.77;;;;;;;;;;5004656;28;20526;-86
2021/09/03 01:02:41;;;;;;;6.30;4.53;;;;;;;;;;5016009;28;20182;-86
2021/09/03 01:05:44;;;;;;;7.20;5.10;;;;;;;;;;5005229;28;20514;-86
2021/09/03 01:08:48;;;;;;;5.40;4.33;;;;;;;;;;5016018;28;20185;-87
2021/09/03 01:11:53;;;;;;;6.20;5.00;;;;;;;;;;5004752;28;20641;-87
2021/09/03 01:14:57;;;;;;;6.23;4.97;;;;;;;;;;5004233;28;20225;-87
2021/09/03 01:18:01;;;;;;;11.90;5.20;;;;;;;;;;5004523;28;20182;-86
2021/09/03 01:21:05;;;;;;;6.73;5.10;;;;;;;;;;5003249;28;20189;-86
2021/09/03 01:24:09;;;;;;;6.83;4.70;;;;;;;;;;5004549;28;20221;-86
2021/09/03 01:27:13;;;;;;;8.17;5.57;;;;;;;;;;5004229;28;20181;-87
2021/09/03 01:30:17;;;;;;;6.40;4.53;;;;;;;;;;5004117;28;20173;-86
2021/09/03 01:33:23;;;;;;;9.93;5.07;;;;;;;;;;5004194;28;20182;-86
2021/09/03 01:36:28;;;;;;;7.90;5.00;;;;;;;;;;5004048;28;20542;-87
2021/09/03 01:39:32;;;;;;;13.27;4.67;;;;;;;;;;5003882;28;20201;-86
2021/09/03 01:42:37;;;;;;;10.07;4.53;;;;;;;;;;5002452;28;20277;-86
2021/09/03 01:45:41;;;;;;;5.60;4.60;;;;;;;;;;5014502;28;20209;-86
2021/09/03 01:48:46;;;;;;;5.93;4.57;;;;;;;;;;5025682;28;20177;-86
2021/09/03 01:51:50;;;;;;;6.17;4.83;;;;;;;;;;5002816;28;20181;-86
2021/09/03 01:54:54;;;;;;;7.30;4.70;;;;;;;;;;5024994;28;20225;-86
2021/09/03 01:57:59;;;;;;;6.13;4.87;;;;;;;;;;5013857;28;20205;-87
2021/09/03 02:01:03;;;;;;;7.40;5.00;;;;;;;;;;5002920;28;20197;-86
2021/09/03 02:04:07;;;;;;;7.43;5.27;;;;;;;;;;5002272;28;20220;-87
2021/09/03 02:07:11;;;;;;;9.33;5.50;;;;;;;;;;5002929;28;20625;-86
2021/09/03 02:10:15;;;;;;;7.27;5.67;;;;;;;;;;5003557;28;20181;-86
2021/09/03 02:13:19;;;;;;;7.77;5.27;;;;;;;;;;5003371;28;20181;-87
2021/09/03 02:16:23;;;;;;;9.23;5.40;;;;;;;;;;5003007;28;20205;-86
2021/09/03 02:19:27;;;;;;;6.50;5.73;;;;;;;;;;5003181;28;20185;-86
2021/09/03 02:22:31;;;;;;;6.77;5.50;;;;;;;;;;5002998;28;20205;-86
2021/09/03 02:25:35;;;;;;;6.00;5.10;;;;;;;;;;5002959;28;20557;-87
2021/09/03 02:28:39;;;;;;;8.60;5.10;;;;;;;;;;5003224;28;20177;-86
2021/09/03 02:31:44;;;;;;;7.57;5.27;;;;;;;;;;5002674;28;20636;-86
2021/09/03 02:34:48;;;;;;;6.50;4.70;;;;;;;;;;5002662;28;20209;-86
2021/09/03 02:37:52;;;;;;;8.07;4.97;;;;;;;;;;5003007;28;20213;-86
2021/09/03 02:40:56;;;;;;;5.20;4.50;;;;;;;;;;5013910;28;20205;-86
2021/09/03 02:44:01;;;;;;;6.33;4.73;;;;;;;;;;5002364;28;20228;-86
2021/09/03 02:47:05;;;;;;;8.10;5.43;;;;;;;;;;5002860;28;20182;-86
2021/09/03 02:50:09;;;;;;;6.33;5.13;;;;;;;;;;5014084;28;20620;-86
2021/09/03 02:53:13;;;;;;;6.13;4.97;;;;;;;;;;5002786;28;20182;-86
2021/09/03 02:56:17;;;;;;;7.47;5.87;;;;;;;;;;5013787;28;20221;-86
2021/09/03 02:59:21;;;;;;;6.70;5.47;;;;;;;;;;5002702;28;20185;-86
2021/09/03 03:02:25;;;;;;;7.33;5.53;;;;;;;;;;5002181;28;20201;-86
2021/09/03 03:05:30;;;;;;;7.27;5.50;;;;;;;;;;4993882;28;20229;-86
2021/09/03 03:08:34;;;;;;;8.20;6.00;;;;;;;;;;4994418;28;20186;-86
2021/09/03 03:11:38;;;;;;;8.07;5.03;;;;;;;;;;4982899;28;20209;-86
2021/09/03 03:14:42;;;;;;;7.20;4.70;;;;;;;;;;4982727;28;20225;-86
2021/09/03 03:17:46;;;;;;;7.27;5.30;;;;;;;;;;4982405;28;20230;-86
2021/09/03 03:20:51;;;;;;;7.70;5.53;;;;;;;;;;4982879;28;20189;-86
2021/09/03 03:23:55;;;;;;;8.23;5.50;;;;;;;;;;4993758;28;20213;-86
2021/09/03 03:26:59;;;;;;;6.60;5.10;;;;;;;;;;4971321;28;20194;-86
2021/09/03 03:30:04;;;;;;;6.93;5.50;;;;;;;;;;4982712;28;20198;-87
2021/09/03 03:33:09;;;;;;;6.73;5.20;;;;;;;;;;4971662;28;20178;-86
2021/09/03 03:36:12;;;;;;;7.87;5.30;;;;;;;;;;4971495;28;20190;-86
2021/09/03 03:39:17;;;;;;;6.70;5.07;;;;;;;;;;4993878;28;20185;-86
2021/09/03 03:42:21;;;;;;;8.03;5.20;;;;;;;;;;4994007;28;20490;-86
2021/09/03 03:45:25;;;;;;;7.00;5.57;;;;;;;;;;4986260;28;20708;-87
2021/09/03 03:48:29;;;;;;;7.63;5.23;;;;;;;;;;4986651;28;20625;-87
2021/09/03 03:51:33;;;;;;;9.13;5.90;;;;;;;;;;4997726;28;20186;-88
2021/09/03 03:54:37;;;;;;;8.50;5.27;;;;;;;;;;5000389;28;20220;-88
2021/09/03 03:57:42;;;;;;;8.57;5.17;;;;;;;;;;5005786;28;20209;-87
2021/09/03 04:00:46;;;;;;;6.60;5.30;;;;;;;;;;5005970;28;20625;-88
2021/09/03 04:03:50;;;;;;;7.00;5.07;;;;;;;;;;5016823;28;20221;-88
2021/09/03 04:06:54;;;;;;;7.33;5.43;;;;;;;;;;5005610;28;20193;-87
2021/09/03 04:09:58;;;;;;;7.90;5.40;;;;;;;;;;4997590;28;20186;-88
2021/09/03 04:13:02;;;;;;;8.57;4.93;;;;;;;;;;4986044;28;20182;-88
2021/09/03 04:16:06;;;;;;;6.87;5.17;;;;;;;;;;4986188;28;20190;-88
2021/09/03 04:19:11;;;;;;;9.10;5.70;;;;;;;;;;4997285;28;20175;-87
2021/09/03 04:22:15;;;;;;;7.70;5.27;;;;;;;;;;4985901;28;20182;-88
2021/09/03 04:25:19;;;;;;;7.70;5.10;;;;;;;;;;4997252;28;20217;-88
2021/09/03 04:28:23;;;;;;;7.23;4.93;;;;;;;;;;4997209;28;20186;-88
2021/09/03 04:31:27;;;;;;;11.47;5.17;;;;;;;;;;4985439;28;20182;-88
2021/09/03 04:34:31;;;;;;;8.00;5.40;;;;;;;;;;5012457;28;20217;-88
2021/09/03 04:37:46;;;;;;;8.33;5.10;;;;;;;;;;5004952;28;20233;-88
2021/09/03 04:40:50;;;;;;;7.40;5.03;;;;;;;;;;5005041;28;20198;-88
2021/09/03 04:43:56;;;;;;;10.77;5.47;;;;;;;;;;5016711;28;20235;-88
2021/09/03 04:47:00;;;;;;;8.37;5.23;;;;;;;;;;5005105;28;20182;-87
2021/09/03 04:50:06;;;;;;;11.80;5.17;;;;;;;;;;5005010;28;20193;-88
2021/09/03 04:53:11;;;;;;;8.13;5.20;;;;;;;;;;5005060;28;20182;-88
2021/09/03 04:56:16;;;;;;;12.60;5.37;;;;;;;;;;4985265;28;20206;-88
2021/09/03 04:59:20;;;;;;;10.40;5.80;;;;;;;;;;4985051;28;20527;-88
2021/09/03 05:02:24;;;;;;;8.33;5.60;;;;;;;;;;4984974;28;20182;-88
2021/09/03 05:05:28;;;;;;;9.07;5.40;;;;;;;;;;4987824;28;20220;-87
2021/09/03 05:08:33;;;;;;;9.10;5.97;;;;;;;;;;5004696;28;20185;-87
2021/09/03 05:11:37;;;;;;;10.03;5.37;;;;;;;;;;4984865;28;20642;-88
2021/09/03 05:14:42;;;;;;;9.00;6.10;;;;;;;;;;4985613;28;20225;-87
2021/09/03 05:17:50;;;;;;;6.73;5.63;;;;;;;;;;4973980;28;20212;-89
2021/09/03 05:20:55;;;;;;;8.50;5.80;;;;;;;;;;4974283;28;20187;-88
2021/09/03 05:24:00;;;;;;;8.53;5.70;;;;;;;;;;4984671;28;20214;-89
2021/09/03 05:27:04;;;;;;;7.93;5.00;;;;;;;;;;4992803;28;20182;-88
2021/09/03 05:30:09;;;;;;;10.03;6.27;;;;;;;;;;5026886;28;20186;-88
2021/09/03 05:33:13;;;;;;;8.40;6.00;;;;;;;;;;5004162;28;20536;-87
2021/09/03 05:36:17;;;;;;;10.40;6.73;;;;;;;;;;5015389;28;20648;-88
2021/09/03 05:39:21;;;;;;;11.13;7.53;;;;;;;;;;5004333;28;20182;-88
2021/09/03 05:42:25;;;;;;;8.63;6.53;;;;;;;;;;5003843;28;20173;-87
2021/09/03 05:45:30;;;;;;;9.97;6.80;;;;;;;;;;5003722;28;20221;-88
2021/09/03 05:48:34;;;;;;;10.57;5.90;;;;;;;;;;5004107;28;20629;-88
2021/09/03 05:51:38;;;;;;;10.97;6.33;;;;;;;;;;5003717;28;20185;-89
2021/09/03 05:54:42;;;;;;;10.17;6.77;;;;;;;;;;5015091;28;20217;-88
2021/09/03 05:57:48;;;;;;;11.20;7.10;;;;;;;;;;5003848;28;20221;-88
2021/09/03 06:00:52;;;;;;;8.93;7.07;;;;;;;;;;5003743;28;20190;-89
2021/09/03 06:03:56;;;;;;;14.00;7.53;;;;;;;;;;5003616;28;20213;-89
2021/09/03 06:07:00;;;;;;;11.67;7.57;;;;;;;;;;5003150;28;20181;-89
2021/09/03 06:10:05;;;;;;;17.40;8.63;;;;;;;;;;5014548;28;20181;-88
2021/09/03 06:13:10;;;;;;;13.57;7.73;;;;;;;;;;4992799;28;20185;-88
2021/09/03 06:16:14;;;;;;;17.67;8.07;;;;;;;;;;5014791;28;20177;-88
2021/09/03 06:19:20;;;;;;;12.23;7.80;;;;;;;;;;5002828;28;20209;-88
2021/09/03 06:22:25;;;;;;;12.23;8.30;;;;;;;;;;5003502;28;20510;-88
2021/09/03 06:25:29;;;;;;;12.00;7.10;;;;;;;;;;5003355;28;20221;-89
2021/09/03 06:28:33;;;;;;;14.13;8.20;;;;;;;;;;5003366;28;20185;-89
2021/09/03 06:31:38;;;;;;;17.40;9.00;;;;;;;;;;5003260;28;20189;-89
2021/09/03 06:34:44;;;;;;;9.30;8.03;;;;;;;;;;5003086;28;20217;-89
2021/09/03 06:37:48;;;;;;;14.90;7.40;;;;;;;;;;5003012;28;20217;-88
2021/09/03 06:40:53;;;;;;;11.83;7.83;;;;;;;;;;5025680;28;20189;-89
2021/09/03 06:43:57;;;;;;;9.90;7.87;;;;;;;;;;5014156;28;20229;-89
2021/09/03 06:47:03;;;;;;;13.17;8.07;;;;;;;;;;5014068;28;20185;-89
2021/09/03 06:50:09;;;;;;;13.90;7.17;;;;;;;;;;4983480;28;20178;-89
2021/09/03 06:53:13;;;;;;;11.40;7.87;;;;;;;;;;4971911;28;20186;-88
2021/09/03 06:56:17;;;;;;;10.77;7.93;;;;;;;;;;4982854;28;20190;-89
2021/09/03 06:59:22;;;;;;;12.63;7.90;;;;;;;;;;4982709;28;20210;-89
2021/09/03 07:02:26;;;;;;;13.53;7.10;;;;;;;;;;4983064;28;20205;-89
2021/09/03 07:05:30;;;;;;;8.60;6.07;;;;;;;;;;4983251;28;20225;-88
2021/09/03 07:08:35;;;;;;;8.63;6.67;;;;;;;;;;4984031;28;20178;-88
2021/09/03 07:11:39;;;;;;;8.60;5.57;;;;;;;;;;4995062;28;20190;-89
2021/09/03 07:14:44;;;;;;;8.43;6.17;;;;;;;;;;5002668;28;20221;-89
2021/09/03 07:17:48;;;;;;;8.27;6.20;;;;;;;;;;5004892;28;20216;-87
2021/09/03 07:20:52;;;;;;;7.57;5.50;;;;;;;;;;5017434;28;20205;-87
2021/09/03 07:24:00;;;;;;;10.97;5.40;;;;;;;;;;4991575;28;20213;-88
2021/09/03 07:27:04;;;;;;;7.17;5.60;;;;;;;;;;4992964;28;20185;-89
2021/09/03 07:30:10;;;;;;;11.73;5.13;;;;;;;;;;5003206;28;20170;-90
2021/09/03 07:33:14;;;;;;;7.00;5.10;;;;;;;;;;5002219;28;20197;-90
2021/09/03 07:36:18;;;;;;;5.50;4.20;;;;;;;;;;5001977;28;20205;-89
2021/09/03 07:39:22;;;;;;;6.50;4.80;;;;;;;;;;5001791;28;20221;-89
2021/09/03 07:42:26;;;;;;;6.50;4.50;;;;;;;;;;4991462;28;20185;-90
2021/09/03 07:45:30;;;;;;;5.33;4.73;;;;;;;;;;5001765;28;20225;-89
2021/09/03 07:48:34;;;;;;;5.93;4.80;;;;;;;;;;5002435;28;20190;-89
2021/09/03 07:51:39;;;;;;;7.47;4.70;;;;;;;;;;4971653;28;20182;-90
2021/09/03 07:54:44;;;;;;;5.60;4.70;;;;;;;;;;4983225;28;20225;-89
2021/09/03 07:57:49;;;;;;;7.40;4.20;;;;;;;;;;4995903;28;20213;-90
2021/09/03 08:00:53;;;;;;;7.10;4.37;;;;;;;;;;4998748;28;20204;-85
2021/09/03 08:03:57;;;;;;;5.30;3.90;;;;;;;;;;4993677;28;20226;-89
2021/09/03 08:07:01;;;;;;;5.00;3.93;;;;;;;;;;4982924;28;20190;-90
2021/09/03 08:10:10;;;;;;;6.93;4.40;;;;;;;;;;5002618;28;20177;-93
2021/09/03 08:13:14;;;;;;;4.63;3.43;;;;;;;;;;4993639;28;20213;-90
2021/09/03 08:16:25;;;;;;;6.20;4.10;;;;;;;;;;4982463;28;20178;-91
2021/09/03 08:19:29;;;;;;;4.57;3.97;;;;;;;;;;4996264;28;20217;-90
2021/09/03 08:22:34;;;;;;;6.07;4.00;;;;;;;;;;4990995;28;20522;-91
2021/09/03 08:25:39;;;;;;;5.77;4.00;;;;;;;;;;5001469;28;20224;-91
2021/09/03 08:28:43;;;;;;;7.43;3.83;;;;;;;;;;5001884;28;20514;-91
2021/09/03 08:31:48;;;;;;;4.73;3.93;;;;;;;;;;5005027;28;20186;-90
2021/09/03 08:34:52;;;;;;;6.80;4.40;;;;;;;;;;5005294;28;20229;-91
2021/09/03 08:37:56;;;;;;;5.13;4.13;;;;;;;;;;4994187;28;20181;-91
2021/09/03 08:41:01;;;;;;;11.87;8.93;;;;;;;;;;5005203;28;20185;-91
2021/09/03 08:44:05;;;;;;;4.50;3.50;;;;;;;;;;4994092;28;20228;-91
2021/09/03 08:47:11;;;;;;;4.20;3.50;;;;;;;;;;5005480;28;20185;-91
2021/09/03 08:50:17;;;;;;;5.50;3.47;;;;;;;;;;5005029;28;20182;-91
2021/09/03 08:53:24;;;;;;;6.43;3.60;;;;;;;;;;5016161;28;20201;-91
2021/09/03 08:56:29;;;;;;;6.13;3.30;;;;;;;;;;4993869;28;20186;-91
2021/09/03 08:59:33;;;;;;;4.23;3.80;;;;;;;;;;5004392;28;20213;-91
2021/09/03 09:02:55;;;;;;;10.63;3.83;;;;;;;;;;4985717;28;20532;-92
2021/09/03 09:05:59;;;;;;;6.67;3.67;;;;;;;;;;4996422;28;20182;-92
2021/09/03 09:09:06;;;;;;;4.00;3.17;;;;;;;;;;5003471;28;20198;-91
2021/09/03 09:12:18;;;;;;;4.73;3.43;;;;;;;;;;4993841;28;20178;-92
2021/09/03 09:15:22;;;;;;;5.93;3.57;;;;;;;;;;4985048;28;20229;-92
2021/09/03 09:18:35;;;;;;;9.40;4.07;;;;;;;;;;4977235;28;20220;-93
2021/09/03 09:21:41;;;;;;;5.68;3.10;;;;;;;;;;5011342;28;20192;-92
2021/09/03 09:24:47;;;;;;;5.50;3.78;;;;;;;;;;5004149;28;20221;-92
2021/09/03 09:27:51;;;;;;;4.13;3.30;;;;;;;;;;5004319;28;20191;-93
2021/09/03 09:30:55;;;;;;;5.43;3.70;;;;;;;;;;5004695;28;20188;-92
2021/09/03 09:33:59;;;;;;;4.15;3.50;;;;;;;;;;5003997;28;20219;-92
2021/09/03 09:37:10;;;;;;;7.00;3.60;;;;;;;;;;5004047;28;20183;-93
2021/09/03 09:40:15;;;;;;;3.55;3.22;;;;;;;;;;5004570;28;20188;-92
2021/09/03 09:43:43;;;;;;;5.65;3.55;;;;;;;;;;5002802;28;20533;-92
2021/09/03 11:26:50;;;;;;;5.95;2.85;;;;;;;;;;4994562;28;20546;-85
2021/09/03 11:30:00;;;;;;;13.45;3.75;;;;;;;;;;4993286;28;20570;-85
2021/09/03 11:33:21;;;;;;;6.55;3.60;;;;;;;;;;4972135;28;20842;-91
2021/09/03 11:36:25;;;;;;;6.65;2.83;;;;;;;;;;5020575;28;20209;-78
2021/09/03 11:39:29;;;;;;;5.03;2.88;;;;;;;;;;4999774;28;20188;-78
2021/09/03 11:42:37;;;;;;;5.15;2.97;;;;;;;;;;5009354;28;20221;-79
2021/09/03 11:45:43;;;;;;;4.18;2.80;;;;;;;;;;4977412;28;20199;-78
2021/09/03 11:48:48;;;;;;;5.03;2.95;;;;;;;;;;4984410;28;20226;-78
2021/09/03 11:52:04;;;;;;;5.30;3.10;;;;;;;;;;4981199;28;20695;-78
2021/09/03 11:55:14;;;;;;;5.45;2.85;;;;;;;;;;4966570;28;20675;-77
2021/09/03 11:58:20;;;;;;;3.38;2.92;;;;;;;;;;4998213;28;20196;-78
2021/09/03 12:01:23;;;;;;;3.15;2.85;;;;;;;;;;4995243;28;20225;-78
2021/09/03 12:04:28;;;;;;;4.95;3.00;;;;;;;;;;4988056;28;20554;-78
2021/09/03 12:07:32;;;;;;;3.50;2.65;;;;;;;;;;4994003;28;20199;-78
2021/09/03 12:10:39;;;;;;;3.60;3.05;;;;;;;;;;4997439;28;20237;-79
2021/09/03 12:13:56;;;;;;;6.85;3.25;;;;;;;;;;5002042;28;20201;-79
2021/09/03 12:17:01;;;;;;;42.53;5.65;;;;;;;;;;4947696;28;20254;-78
2021/09/03 12:20:16;;;;;;;10.75;3.40;;;;;;;;;;4945506;29;20191;-79
2021/09/03 12:23:20;;;;;;;4.25;3.17;;;;;;;;;;4955610;29;20194;-79
2021/09/03 12:26:52;;;;;;;4.32;3.30;;;;;;;;;;4983889;28;20189;-79
2021/09/03 12:30:12;;;;;;;5.82;2.72;;;;;;;;;;4964166;28;20210;-78
2021/09/03 12:33:27;;;;;;;4.68;3.03;;;;;;;;;;4965986;29;20206;-79
2021/09/03 12:36:33;;;;;;;7.20;2.60;;;;;;;;;;4973886;28;20181;-78
2021/09/03 12:39:41;;;;;;;3.40;2.58;;;;;;;;;;4947091;29;20179;-78
2021/09/03 12:42:46;;;;;;;26.23;3.70;;;;;;;;;;4965556;28;20199;-78
2021/09/03 12:45:50;;;;;;;3.83;3.10;;;;;;;;;;4969213;28;20183;-78
2021/09/03 12:49:05;;;;;;;3.42;3.13;;;;;;;;;;4940029;29;20204;-80
2021/09/03 12:52:14;;;;;;;3.15;2.60;;;;;;;;;;4939993;29;20218;-78
2021/09/03 12:55:18;;;;;;;17.27;3.03;;;;;;;;;;4950460;29;20195;-77
2021/09/03 12:58:22;;;;;;;2.97;2.65;;;;;;;;;;4954471;29;20203;-78
2021/09/03 13:01:27;;;;;;;4.40;2.58;;;;;;;;;;4960003;29;20234;-78
2021/09/03 13:04:31;;;;;;;4.75;3.13;;;;;;;;;;4959485;29;20552;-78
2021/09/03 13:07:35;;;;;;;5.20;2.97;;;;;;;;;;4951582;29;20773;-78
2021/09/03 13:10:39;;;;;;;3.92;2.80;;;;;;;;;;4933767;29;20227;-78
2021/09/03 13:13:45;;;;;;;6.57;3.40;;;;;;;;;;4949170;29;20209;-78
2021/09/03 13:16:49;;;;;;;5.55;2.80;;;;;;;;;;4972683;28;20192;-78
2021/09/03 13:19:53;;;;;;;4.05;2.70;;;;;;;;;;4963985;29;20189;-78
2021/09/03 13:22:57;;;;;;;3.05;2.75;;;;;;;;;;4950965;29;20202;-78
2021/09/03 13:26:02;;;;;;;6.95;2.95;;;;;;;;;;4957433;29;20198;-78
2021/09/03 13:29:07;;;;;;;3.65;2.90;;;;;;;;;;4951711;29;20201;-78
2021/09/03 13:32:11;;;;;;;3.72;2.60;;;;;;;;;;4972478;28;20235;-78
2021/09/03 13:35:16;;;;;;;3.28;2.58;;;;;;;;;;4972608;28;20213;-78
2021/09/03 13:38:21;;;;;;;4.80;2.75;;;;;;;;;;4968529;28;20214;-78
2021/09/03 13:41:26;;;;;;;4.05;2.42;;;;;;;;;;4959052;29;20225;-77
2021/09/03 13:44:30;;;;;;;5.53;2.95;;;;;;;;;;4942897;29;20188;-78
2021/09/03 13:47:37;;;;;;;4.88;3.10;;;;;;;;;;4930914;29;20471;-78
2021/09/03 13:50:42;;;;;;;4.22;2.88;;;;;;;;;;4959677;29;20237;-79
2021/09/03 13:53:46;;;;;;;3.60;2.85;;;;;;;;;;4953638;29;20184;-75
2021/09/03 13:56:51;;;;;;;3.00;2.55;;;;;;;;;;4953593;29;20194;-76
2021/09/03 13:59:55;;;;;;;11.90;3.25;;;;;;;;;;4965405;28;20188;-76
2021/09/03 14:02:59;;;;;;;7.90;2.97;;;;;;;;;;4956074;29;20184;-75
2021/09/03 14:06:03;;;;;;;5.88;2.65;;;;;;;;;;4956003;29;20195;-76
2021/09/03 14:09:07;;;;;;;3.78;2.72;;;;;;;;;;4956974;29;20192;-76
2021/09/03 14:12:12;;;;;;;5.70;2.72;;;;;;;;;;4956656;29;20225;-75
2021/09/03 14:15:15;;;;;;;3.47;2.70;;;;;;;;;;4956144;29;20198;-76
2021/09/03 14:18:20;;;;;;;3.58;2.63;;;;;;;;;;4956169;29;20197;-76
2021/09/03 14:21:24;;;;;;;3.05;2.55;;;;;;;;;;4966555;28;20555;-76
2021/09/03 14:24:28;;;;;;;4.53;2.80;;;;;;;;;;4956074;29;20194;-76
2021/09/03 14:27:32;;;;;;;5.50;2.90;;;;;;;;;;4955490;28;20188;-75
2021/09/03 14:30:37;;;;;;;5.38;2.63;;;;;;;;;;4956065;29;20214;-75
2021/09/03 14:33:42;;;;;;;6.03;3.30;;;;;;;;;;4965581;28;20215;-76
2021/09/03 14:36:47;;;;;;;3.20;2.78;;;;;;;;;;4955169;29;20194;-76
2021/09/03 14:39:51;;;;;;;12.13;3.28;;;;;;;;;;4956310;29;20192;-76
2021/09/03 14:42:55;;;;;;;4.68;2.60;;;;;;;;;;4956466;29;20187;-75
2021/09/03 14:45:59;;;;;;;6.45;3.25;;;;;;;;;;4956006;29;20195;-76
2021/09/03 14:49:03;;;;;;;5.93;2.67;;;;;;;;;;4956062;29;20196;-76
2021/09/03 14:52:07;;;;;;;4.07;2.75;;;;;;;;;;4955925;29;20229;-75
2021/09/03 14:55:12;;;;;;;6.60;2.47;;;;;;;;;;4954294;29;20196;-76
2021/09/03 14:58:16;;;;;;;5.45;2.42;;;;;;;;;;4965944;28;20198;-76
2021/09/03 15:01:20;;;;;;;3.50;2.47;;;;;;;;;;4952315;28;20238;-76
2021/09/03 15:04:25;;;;;;;5.28;3.30;;;;;;;;;;4953802;29;20196;-76
2021/09/03 15:07:30;;;;;;;3.78;2.75;;;;;;;;;;4955508;29;20196;-75
2021/09/03 15:10:35;;;;;;;5.82;2.90;;;;;;;;;;4955566;28;20303;-76
2021/09/03 15:13:39;;;;;;;4.57;2.50;;;;;;;;;;4947933;29;20654;-76
2021/09/03 15:16:43;;;;;;;3.97;2.55;;;;;;;;;;4954575;29;20202;-76
2021/09/03 15:19:48;;;;;;;4.10;2.78;;;;;;;;;;4965390;28;20196;-75
2021/09/03 15:22:52;;;;;;;7.15;2.80;;;;;;;;;;4954950;29;20209;-75
2021/09/03 15:25:56;;;;;;;3.95;3.05;;;;;;;;;;4955401;29;20529;-75
2021/09/03 15:29:00;;;;;;;4.82;2.92;;;;;;;;;;4965715;28;20190;-75
2021/09/03 15:32:05;;;;;;;3.35;2.63;;;;;;;;;;4955700;29;20215;-75
2021/09/03 15:35:10;;;;;;;5.82;2.78;;;;;;;;;;4955303;29;20213;-75
2021/09/03 15:38:21;;;;;;;5.00;3.05;;;;;;;;;;4955110;29;20199;-75
2021/09/03 15:41:26;;;;;;;147.70;106.22;;;;;;;;;;4964563;28;20224;-74
2021/09/03 15:44:30;;;;;;;38.08;32.67;;;;;;;;;;4953402;28;20551;-74
2021/09/03 15:47:34;;;;;;;88.22;65.32;;;;;;;;;;4952736;29;20226;-74
2021/09/03 15:50:41;;;;;;;133.63;95.13;;;;;;;;;;4940332;29;20777;-73
2021/09/03 15:53:45;;;;;;;14.85;5.28;;;;;;;;;;4935673;29;20729;-74
2021/09/03 15:56:49;;;;;;;5.72;3.38;;;;;;;;;;4934912;29;20727;-74
2021/09/03 15:59:53;;;;;;;64.37;48.73;;;;;;;;;;4935405;29;20184;-73
2021/09/03 16:02:57;;;;;;;345.27;269.70;;;;;;;;;;4936876;29;20213;-75
2021/09/03 16:06:02;;;;;;;90.60;69.83;;;;;;;;;;4936194;29;20191;-73
2021/09/03 16:09:06;;;;;;;306.43;224.17;;;;;;;;;;4939595;29;20195;-74
2021/09/03 16:12:11;;;;;;;215.93;154.53;;;;;;;;;;4938400;29;20297;-74
2021/09/03 16:15:16;;;;;;;8.57;5.57;;;;;;;;;;4936289;29;20217;-74
2021/09/03 16:18:20;;;;;;;3.93;3.17;;;;;;;;;;4935751;29;20205;-74
2021/09/03 16:21:26;;;;;;;4.43;3.00;;;;;;;;;;4935749;29;20221;-73
2021/09/03 16:24:31;;;;;;;3.43;2.93;;;;;;;;;;4943768;29;20185;-74
2021/09/03 16:27:35;;;;;;;4.33;3.00;;;;;;;;;;4955051;29;20181;-73
2021/09/03 16:30:39;;;;;;;4.57;2.90;;;;;;;;;;4946907;29;20229;-74
2021/09/03 16:33:44;;;;;;;11.07;2.90;;;;;;;;;;4954974;29;20205;-74
2021/09/03 16:36:48;;;;;;;3.90;2.97;;;;;;;;;;4951055;29;20198;-74
2021/09/03 16:39:53;;;;;;;5.87;2.93;;;;;;;;;;4936208;29;20188;-74
2021/09/03 16:42:57;;;;;;;4.10;3.00;;;;;;;;;;4935895;29;20201;-74
2021/09/03 16:46:01;;;;;;;16.30;3.77;;;;;;;;;;4951986;28;20205;-74
2021/09/03 16:49:05;;;;;;;11.30;3.37;;;;;;;;;;4924921;29;20200;-74
2021/09/03 16:52:12;;;;;;;34.67;5.27;;;;;;;;;;4937165;29;20228;-73
2021/09/03 16:55:17;;;;;;;25.07;4.30;;;;;;;;;;4939070;29;20207;-74
2021/09/03 16:58:21;;;;;;;20.27;3.57;;;;;;;;;;4940626;29;20177;-73
2021/09/03 17:01:24;;;;;;;13.57;3.70;;;;;;;;;;4957928;29;20219;-74
2021/09/03 17:04:29;;;;;;;4.50;3.50;;;;;;;;;;4949653;29;20179;-73
2021/09/03 17:07:33;;;;;;;8.73;3.50;;;;;;;;;;4958446;29;20183;-73
2021/09/03 17:10:39;;;;;;;10.70;3.60;;;;;;;;;;4957680;29;20235;-74
2021/09/03 17:13:43;;;;;;;4.13;3.30;;;;;;;;;;4954530;28;20239;-73
2021/09/03 17:16:49;;;;;;;6.13;3.43;;;;;;;;;;4968179;28;20635;-73
2021/09/03 17:19:53;;;;;;;8.30;3.63;;;;;;;;;;4945522;29;20545;-72
2021/09/03 17:22:57;;;;;;;9.77;3.23;;;;;;;;;;4949315;29;20199;-73
2021/09/03 17:26:02;;;;;;;5.47;3.63;;;;;;;;;;4961893;28;20196;-73
2021/09/03 17:29:06;;;;;;;5.30;3.30;;;;;;;;;;4941386;29;20200;-73
2021/09/03 17:32:10;;;;;;;4.53;3.43;;;;;;;;;;4969030;28;20573;-73
2021/09/03 17:35:14;;;;;;;8.40;3.80;;;;;;;;;;4939592;29;20224;-73
2021/09/03 17:38:19;;;;;;;14.23;3.63;;;;;;;;;;4938164;29;20179;-73
2021/09/03 17:41:23;;;;;;;5.00;3.17;;;;;;;;;;4937231;29;20560;-73
2021/09/03 17:44:27;;;;;;;5.23;3.70;;;;;;;;;;4938304;29;20184;-73
2021/09/03 17:47:31;;;;;;;5.27;3.80;;;;;;;;;;4941687;29;20195;-73
2021/09/03 17:50:35;;;;;;;17.07;5.13;;;;;;;;;;4938520;29;20223;-73
2021/09/03 17:53:39;;;;;;;9.27;3.60;;;;;;;;;;4955245;29;20199;-73
2021/09/03 17:56:43;;;;;;;10.43;4.33;;;;;;;;;;4955858;29;20516;-72
2021/09/03 17:59:48;;;;;;;9.60;3.53;;;;;;;;;;4941466;29;20187;-73
2021/09/03 18:02:53;;;;;;;29.40;3.73;;;;;;;;;;4956188;28;20184;-73
2021/09/03 18:05:57;;;;;;;13.13;3.83;;;;;;;;;;4956019;29;20184;-73
2021/09/03 18:09:03;;;;;;;38.70;4.93;;;;;;;;;;4956801;29;20196;-73
2021/09/03 18:12:07;;;;;;;32.63;4.97;;;;;;;;;;4941731;29;20230;-73
2021/09/03 18:15:12;;;;;;;30.00;4.57;;;;;;;;;;4956577;29;20195;-73
2021/09/03 18:18:16;;;;;;;16.10;3.53;;;;;;;;;;4955711;29;20183;-73
2021/09/03 18:21:20;;;;;;;7.20;3.57;;;;;;;;;;4956187;29;20223;-73
2021/09/03 18:24:24;;;;;;;8.00;3.67;;;;;;;;;;4956764;29;20183;-73
2021/09/03 18:27:28;;;;;;;5.00;3.77;;;;;;;;;;4950034;29;20188;-73
2021/09/03 18:30:32;;;;;;;5.87;3.40;;;;;;;;;;4947412;29;20191;-73
2021/09/03 18:33:36;;;;;;;7.27;3.77;;;;;;;;;;4936976;29;20204;-73
2021/09/03 18:36:40;;;;;;;4.37;3.53;;;;;;;;;;4944008;29;20194;-73
2021/09/03 18:39:44;;;;;;;6.03;4.43;;;;;;;;;;4955125;29;20195;-73
2021/09/03 18:42:49;;;;;;;4.50;3.60;;;;;;;;;;4937565;29;20185;-73
2021/09/03 18:45:53;;;;;;;6.40;3.70;;;;;;;;;;4937484;29;20192;-73
2021/09/03 18:48:57;;;;;;;5.33;3.40;;;;;;;;;;4936867;29;20628;-73
2021/09/03 18:52:07;;;;;;;7.17;3.77;;;;;;;;;;4948464;29;20231;-73
2021/09/03 18:55:14;;;;;;;6.77;3.57;;;;;;;;;;4956316;29;20184;-73
2021/09/03 18:58:18;;;;;;;4.53;3.80;;;;;;;;;;4936192;29;20192;-73
2021/09/03 19:01:24;;;;;;;10.73;4.40;;;;;;;;;;4937056;29;20220;-73
2021/09/03 19:04:29;;;;;;;16.20;3.83;;;;;;;;;;4936553;29;20207;-73
2021/09/03 19:07:34;;;;;;;10.00;4.30;;;;;;;;;;4950054;29;20203;-73
2021/09/03 19:10:41;;;;;;;18.63;4.20;;;;;;;;;;4963450;28;20721;-72
2021/09/03 19:13:46;;;;;;;5.13;3.40;;;;;;;;;;4955292;28;20702;-72
2021/09/03 19:16:51;;;;;;;8.97;3.87;;;;;;;;;;4936791;29;20180;-73
2021/09/03 19:19:56;;;;;;;7.63;3.90;;;;;;;;;;4937693;29;20659;-73
2021/09/03 19:23:01;;;;;;;5.73;3.93;;;;;;;;;;4935833;29;20509;-72
2021/09/03 19:26:05;;;;;;;6.00;3.80;;;;;;;;;;4936472;29;20518;-73
2021/09/03 19:29:09;;;;;;;10.67;3.93;;;;;;;;;;4936844;29;20200;-73
2021/09/03 19:32:13;;;;;;;5.00;3.70;;;;;;;;;;4954760;29;20231;-72
2021/09/03 19:35:17;;;;;;;6.80;3.77;;;;;;;;;;4972173;28;20215;-72
2021/09/03 19:38:21;;;;;;;5.17;3.77;;;;;;;;;;4935327;29;20199;-73
2021/09/03 19:41:25;;;;;;;5.07;3.80;;;;;;;;;;4935409;29;20212;-73
2021/09/03 19:44:29;;;;;;;5.63;3.90;;;;;;;;;;4936105;29;20183;-73
2021/09/03 19:47:35;;;;;;;4.33;3.63;;;;;;;;;;4936241;29;20184;-72
2021/09/03 19:50:40;;;;;;;6.20;3.97;;;;;;;;;;4936213;29;20227;-73
2021/09/03 19:53:49;;;;;;;4.80;3.93;;;;;;;;;;4936532;29;20176;-73
2021/09/03 19:56:54;;;;;;;6.47;4.00;;;;;;;;;;4949330;29;20191;-73
2021/09/03 19:59:58;;;;;;;4.87;3.40;;;;;;;;;;4935117;29;20644;-73
2021/09/03 20:03:02;;;;;;;5.77;3.90;;;;;;;;;;4936013;29;20184;-73